X  Lukk Metar værinformasjon om luftfart     EHKD De Kooy Airport
Temperatur
43°F Temperatur
36°F Duggpunkt
76% Luftfuktighet



Vind
13 MPT
21 KM/T
6 M/S
11 KNP



40°
Nåværende forhold

For det meste Overskyet For det meste Overskyet
Trykk 1017.95 (hPa) - 30.06 (inHg)
Sikt 6 (mil) - 9.7 (km)
Flyplass
Flyplass-kode EHKD

Plassering: De Kooy Airport
Avstand: 34 (mi)

Metar:
EHKD 270125Z AUTO 04011KT 360V070 9999 BKN021 OVC024 06/02 Q1018 WHT

Tid: 27-02-2024 02:25 CET